createdAt,value
2024-02-10T00:02:58.856Z,75.70
2024-02-10T00:06:01.785Z,76.10
2024-02-10T00:09:08.141Z,76.00
2024-02-10T00:12:11.095Z,76.50
2024-02-10T00:15:14.396Z,76.90
2024-02-10T00:18:19.894Z,76.70
2024-02-10T00:21:22.332Z,77.50
2024-02-10T00:24:27.888Z,77.50
2024-02-10T00:27:30.215Z,76.90
2024-02-10T00:30:32.500Z,77.10
2024-02-10T00:33:35.373Z,77.40
2024-02-10T00:36:37.766Z,77.10
2024-02-10T00:39:40.117Z,77.20
2024-02-10T00:42:43.684Z,77.90
2024-02-10T00:45:48.170Z,77.80
2024-02-10T00:48:54.691Z,77.90
2024-02-10T00:51:58.682Z,78.30
2024-02-10T00:55:00.980Z,79.50
2024-02-10T00:58:06.921Z,79.50
2024-02-10T01:01:14.563Z,80.10
2024-02-10T01:04:17.146Z,80.50
2024-02-10T01:07:19.482Z,81.20
2024-02-10T01:10:22.101Z,82.00
2024-02-10T01:13:27.203Z,83.80
2024-02-10T01:16:29.558Z,85.30
2024-02-10T01:19:31.971Z,88.40
2024-02-10T01:22:34.405Z,88.90
2024-02-10T01:25:36.732Z,86.90
2024-02-10T01:28:39.870Z,86.40
2024-02-10T01:31:43.027Z,86.20
2024-02-10T01:34:45.474Z,85.60
2024-02-10T01:37:48.001Z,85.90
2024-02-10T01:40:52.340Z,85.20
2024-02-10T01:43:54.914Z,84.60
2024-02-10T01:46:57.213Z,84.60
2024-02-10T01:49:59.662Z,84.60
2024-02-10T01:53:03.349Z,83.80
2024-02-10T01:56:06.149Z,83.80
2024-02-10T01:59:09.253Z,83.40
2024-02-10T02:02:15.994Z,83.40
2024-02-10T02:05:19.915Z,83.90
2024-02-10T02:08:22.276Z,83.50
2024-02-10T02:11:24.863Z,83.00
2024-02-10T02:14:27.189Z,83.70
2024-02-10T02:17:29.321Z,83.50
2024-02-10T02:20:31.872Z,82.90
2024-02-10T02:23:37.139Z,82.60
2024-02-10T02:26:39.459Z,83.00
2024-02-10T02:29:41.548Z,83.10
2024-02-10T02:32:43.720Z,83.30
2024-02-10T02:35:46.199Z,82.70
2024-02-10T02:38:48.513Z,83.20
2024-02-10T02:41:51.340Z,83.00
2024-02-10T02:44:53.651Z,83.30
2024-02-10T02:48:02.665Z,83.00
2024-02-10T02:51:05.364Z,82.40
2024-02-10T02:54:07.676Z,83.20
2024-02-10T02:57:09.958Z,83.70
2024-02-10T03:00:13.053Z,83.10
2024-02-10T03:03:16.536Z,83.00
2024-02-10T03:06:22.497Z,83.30
2024-02-10T03:09:24.845Z,83.70
2024-02-10T03:12:26.873Z,83.40
2024-02-10T03:15:31.981Z,83.40
2024-02-10T03:18:34.276Z,83.30
2024-02-10T03:21:37.294Z,83.20
2024-02-10T03:24:39.913Z,83.70
2024-02-10T03:27:43.654Z,83.20
2024-02-10T03:30:46.466Z,83.20
2024-02-10T03:33:48.788Z,83.80
2024-02-10T03:36:51.147Z,84.00
2024-02-10T03:39:53.172Z,84.80
2024-02-10T03:42:55.234Z,85.20
2024-02-10T03:45:57.544Z,85.90
2024-02-10T03:49:03.033Z,86.10
2024-02-10T03:52:05.722Z,86.50
2024-02-10T03:55:11.807Z,86.60
2024-02-10T03:58:17.726Z,86.10
2024-02-10T04:01:20.441Z,85.80
2024-02-10T04:04:23.182Z,85.80
2024-02-10T04:07:28.224Z,86.10
2024-02-10T04:10:30.662Z,86.60
2024-02-10T04:13:36.644Z,87.60
2024-02-10T04:16:43.109Z,87.60
2024-02-10T04:19:45.502Z,88.00
2024-02-10T04:22:48.293Z,88.50
2024-02-10T04:25:50.693Z,89.10
2024-02-10T04:28:53.132Z,89.10
2024-02-10T04:32:00.390Z,90.20
2024-02-10T04:35:03.018Z,90.60
2024-02-10T04:38:09.877Z,90.80
2024-02-10T04:41:12.244Z,91.30
2024-02-10T04:44:14.596Z,91.90
2024-02-10T04:47:17.368Z,92.10
2024-02-10T04:50:21.026Z,92.40
2024-02-10T04:53:26.391Z,92.90
2024-02-10T04:56:29.355Z,93.30
2024-02-10T04:59:31.708Z,94.20
2024-02-10T05:02:34.434Z,94.80
2024-02-10T05:05:36.929Z,95.40
2024-02-10T05:08:40.183Z,95.80
2024-02-10T05:11:42.623Z,96.10
2024-02-10T05:14:45.044Z,96.90
2024-02-10T05:17:50.466Z,97.70
2024-02-10T05:20:53.493Z,98.00
2024-02-10T05:23:56.305Z,98.50
2024-02-10T05:26:58.582Z,99.10
2024-02-10T05:30:00.977Z,99.40
2024-02-10T05:33:06.400Z,99.10
2024-02-10T05:36:12.110Z,98.50
2024-02-10T05:39:17.797Z,98.50
2024-02-10T05:42:21.649Z,97.40
2024-02-10T05:45:23.846Z,96.40
2024-02-10T05:48:31.083Z,95.70
2024-02-10T05:51:40.191Z,95.20
2024-02-10T05:54:42.722Z,94.50
2024-02-10T05:57:45.001Z,94.30
2024-02-10T06:00:49.233Z,94.20
2024-02-10T06:03:53.657Z,94.40
2024-02-10T06:06:59.000Z,94.30
2024-02-10T06:10:01.353Z,94.10
2024-02-10T06:13:04.323Z,93.80
2024-02-10T06:16:06.933Z,93.60
2024-02-10T06:19:09.319Z,93.10
2024-02-10T06:22:11.639Z,92.90
2024-02-10T06:25:14.436Z,92.70
2024-02-10T06:28:18.234Z,92.60
2024-02-10T06:31:20.681Z,92.80
2024-02-10T06:34:22.893Z,93.10
2024-02-10T06:37:26.471Z,92.90
2024-02-10T06:40:28.997Z,92.90
2024-02-10T06:43:35.555Z,92.80
2024-02-10T06:46:37.859Z,93.20
2024-02-10T06:49:40.086Z,92.40
2024-02-10T06:52:43.941Z,91.90
2024-02-10T06:55:47.038Z,91.50
2024-02-10T06:58:50.579Z,91.10
2024-02-10T07:01:56.232Z,90.40
2024-02-10T07:04:58.872Z,89.40
2024-02-10T07:08:01.421Z,89.30
2024-02-10T07:11:03.826Z,88.70
2024-02-10T07:14:09.343Z,89.50
2024-02-10T07:17:12.064Z,89.10
2024-02-10T07:20:24.707Z,89.80
2024-02-10T07:23:29.710Z,90.00
2024-02-10T07:26:32.095Z,90.90
2024-02-10T07:29:36.229Z,91.20
2024-02-10T07:32:38.581Z,91.30
2024-02-10T07:35:42.196Z,91.40
2024-02-10T07:38:44.774Z,91.60
2024-02-10T07:41:47.398Z,91.80
2024-02-10T07:44:51.265Z,91.20
2024-02-10T07:47:57.192Z,90.80
2024-02-10T07:50:59.786Z,89.70
2024-02-10T07:54:02.071Z,87.90
2024-02-10T07:57:04.286Z,85.50
2024-02-10T08:00:10.832Z,84.20
2024-02-10T08:03:13.721Z,83.20
2024-02-10T08:06:16.177Z,83.10
2024-02-10T08:09:18.605Z,81.30
2024-02-10T08:12:26.574Z,80.40
2024-02-10T08:15:31.641Z,78.90
2024-02-10T08:18:34.160Z,78.10
2024-02-10T08:21:38.291Z,76.60
2024-02-10T08:24:41.078Z,75.80
2024-02-10T08:27:43.339Z,74.70
2024-02-10T08:30:46.109Z,75.20
2024-02-10T08:33:52.002Z,74.40
2024-02-10T08:36:54.717Z,74.00
2024-02-10T08:39:59.281Z,74.40
2024-02-10T08:43:01.768Z,74.00
2024-02-10T08:46:08.332Z,71.80
2024-02-10T08:49:15.918Z,71.70
2024-02-10T08:52:23.238Z,70.20
2024-02-10T08:55:28.500Z,68.90
2024-02-10T08:58:30.926Z,69.10
2024-02-10T09:01:33.238Z,66.70
2024-02-10T09:04:35.771Z,65.30
2024-02-10T09:07:38.108Z,64.90
2024-02-10T09:10:40.495Z,65.00
2024-02-10T09:13:44.926Z,63.20
2024-02-10T09:16:47.249Z,63.20
2024-02-10T09:19:49.859Z,62.10
2024-02-10T09:22:54.562Z,64.00
2024-02-10T09:25:57.098Z,61.20
2024-02-10T09:28:59.461Z,62.40
2024-02-10T09:32:02.593Z,60.70
2024-02-10T09:35:05.675Z,60.60
2024-02-10T09:38:14.221Z,61.70
2024-02-10T09:41:17.870Z,61.40
2024-02-10T09:44:20.884Z,58.30
2024-02-10T09:47:24.532Z,58.20
2024-02-10T09:50:34.508Z,57.80
2024-02-10T09:53:43.321Z,57.40
2024-02-10T09:56:45.718Z,56.60
2024-02-10T09:59:48.123Z,56.80
2024-02-10T10:02:52.271Z,56.50
2024-02-10T10:05:56.443Z,57.40
2024-02-10T10:09:01.916Z,56.30
2024-02-10T10:12:11.070Z,57.70
2024-02-10T10:15:17.097Z,56.20
2024-02-10T10:18:22.761Z,57.70
2024-02-10T10:21:25.838Z,57.40
2024-02-10T10:24:29.574Z,58.30
2024-02-10T10:27:32.961Z,57.10
2024-02-10T10:30:36.909Z,58.30
2024-02-10T10:33:41.090Z,56.80
2024-02-10T10:36:44.747Z,56.50
2024-02-10T10:39:48.008Z,56.80
2024-02-10T10:42:51.690Z,56.40
2024-02-10T10:45:54.017Z,55.70
2024-02-10T10:48:57.970Z,56.00
2024-02-10T10:52:04.711Z,56.60
2024-02-10T10:55:13.362Z,54.70
2024-02-10T10:58:19.301Z,54.60
2024-02-10T11:01:22.836Z,55.10
2024-02-10T11:04:27.367Z,55.40
2024-02-10T11:07:40.302Z,54.70
2024-02-10T11:10:45.931Z,55.80
2024-02-10T11:13:48.655Z,56.10
2024-02-10T11:16:51.594Z,54.10
2024-02-10T11:20:09.347Z,54.50
2024-02-10T11:23:22.352Z,54.60
2024-02-10T11:26:30.107Z,55.00
2024-02-10T11:29:32.388Z,56.00
2024-02-10T11:32:35.165Z,53.70
2024-02-10T11:35:38.754Z,54.60
2024-02-10T11:38:42.015Z,53.80
2024-02-10T11:41:44.376Z,53.20
2024-02-10T11:44:47.544Z,53.90
2024-02-10T11:47:56.416Z,53.90
2024-02-10T11:51:04.574Z,54.00
2024-02-10T11:54:07.808Z,53.00
2024-02-10T11:57:10.256Z,53.80
2024-02-10T12:00:14.244Z,52.20
2024-02-10T12:03:22.047Z,52.60
2024-02-10T12:06:26.715Z,53.50
2024-02-10T12:09:30.498Z,53.80
2024-02-10T12:12:33.863Z,54.50
2024-02-10T12:15:36.657Z,53.70
2024-02-10T12:18:40.392Z,52.60
2024-02-10T12:21:43.097Z,53.20
2024-02-10T12:24:46.045Z,52.30
2024-02-10T12:27:48.436Z,52.60
2024-02-10T12:30:51.203Z,51.90
2024-02-10T12:33:56.105Z,52.30
2024-02-10T12:36:58.746Z,51.30
2024-02-10T12:40:00.902Z,50.90
2024-02-10T12:43:05.751Z,51.20
2024-02-10T12:46:07.849Z,51.40
2024-02-10T12:49:10.836Z,50.40
2024-02-10T12:52:17.746Z,52.20
2024-02-10T12:55:20.004Z,52.00
2024-02-10T12:58:22.437Z,51.90
2024-02-10T13:01:31.932Z,53.30
2024-02-10T13:04:36.845Z,51.80
2024-02-10T13:07:39.380Z,51.30
2024-02-10T13:10:42.330Z,50.40
2024-02-10T13:13:46.086Z,51.80
2024-02-10T13:16:48.334Z,50.30
2024-02-10T13:19:50.710Z,50.00
2024-02-10T13:23:02.978Z,48.70
2024-02-10T13:26:06.750Z,49.50
2024-02-10T13:29:09.353Z,49.20
2024-02-10T13:32:15.177Z,49.20
2024-02-10T13:35:20.799Z,49.70
2024-02-10T13:38:43.424Z,49.40
2024-02-10T13:42:04.270Z,49.80
2024-02-10T13:45:25.859Z,50.20
2024-02-10T13:48:46.621Z,50.40
2024-02-10T13:52:07.470Z,50.70
2024-02-10T13:55:28.394Z,48.90
2024-02-10T13:58:30.788Z,49.10
2024-02-10T14:01:53.620Z,50.50
2024-02-10T14:05:02.296Z,50.40
2024-02-10T14:08:13.816Z,50.40
2024-02-10T14:11:24.120Z,50.20
2024-02-10T14:14:26.547Z,50.40
2024-02-10T14:17:29.169Z,50.60
2024-02-10T14:20:35.222Z,49.40
2024-02-10T14:23:37.782Z,49.50
2024-02-10T14:26:53.167Z,49.80
2024-02-10T14:29:55.480Z,50.30
2024-02-10T14:32:57.828Z,49.70
2024-02-10T14:36:07.328Z,49.30
2024-02-10T14:39:16.581Z,49.40
2024-02-10T14:42:18.839Z,50.50
2024-02-10T14:45:22.255Z,50.40
2024-02-10T14:48:26.226Z,50.10
2024-02-10T14:51:28.647Z,50.80
2024-02-10T14:54:31.829Z,50.60
2024-02-10T14:57:34.030Z,51.40
2024-02-10T15:00:36.331Z,52.00
2024-02-10T15:03:40.134Z,51.90
2024-02-10T15:06:42.914Z,52.70
2024-02-10T15:09:45.322Z,53.10
2024-02-10T15:12:47.823Z,53.70
2024-02-10T15:15:52.274Z,55.00
2024-02-10T15:18:54.598Z,54.90
2024-02-10T15:22:00.395Z,55.30
2024-02-10T15:25:06.019Z,55.30
2024-02-10T15:28:18.550Z,55.10
2024-02-10T15:31:22.274Z,55.20
2024-02-10T15:34:27.392Z,55.30
2024-02-10T15:37:30.275Z,54.10
2024-02-10T15:40:32.783Z,55.60
2024-02-10T15:43:36.309Z,54.70
2024-02-10T15:46:43.081Z,55.30
2024-02-10T15:49:46.704Z,55.00
2024-02-10T15:52:49.353Z,55.20
2024-02-10T15:55:57.514Z,55.70
2024-02-10T15:59:01.395Z,56.00
2024-02-10T16:02:03.827Z,56.30
2024-02-10T16:05:12.180Z,56.30
2024-02-10T16:08:15.813Z,56.40
2024-02-10T16:11:18.061Z,56.30
2024-02-10T16:14:28.860Z,56.40
2024-02-10T16:17:34.782Z,57.10
2024-02-10T16:20:37.064Z,56.90
2024-02-10T16:23:39.699Z,57.50
2024-02-10T16:26:41.919Z,58.00
2024-02-10T16:29:46.673Z,59.00
2024-02-10T16:32:54.496Z,59.00
2024-02-10T16:35:56.951Z,60.00
2024-02-10T16:39:01.843Z,59.90
2024-02-10T16:42:04.366Z,60.60
2024-02-10T16:45:09.712Z,61.90
2024-02-10T16:48:16.030Z,62.60
2024-02-10T16:51:26.197Z,63.40
2024-02-10T16:54:30.303Z,66.00
2024-02-10T16:57:33.792Z,67.90
2024-02-10T17:00:41.197Z,71.20
2024-02-10T17:03:43.616Z,73.10
2024-02-10T17:06:46.733Z,75.70
2024-02-10T17:09:50.184Z,76.40
2024-02-10T17:12:53.082Z,76.90
2024-02-10T17:15:55.735Z,76.20
2024-02-10T17:18:58.463Z,76.20
2024-02-10T17:22:00.853Z,76.80
2024-02-10T17:25:05.478Z,78.40
2024-02-10T17:28:08.052Z,78.30
2024-02-10T17:31:14.617Z,77.60
2024-02-10T17:34:16.848Z,78.30
2024-02-10T17:37:19.147Z,79.00
2024-02-10T17:40:21.582Z,78.70
2024-02-10T17:43:25.089Z,79.00
2024-02-10T17:46:29.732Z,79.80
2024-02-10T17:49:41.844Z,80.20
2024-02-10T17:52:46.216Z,80.00
2024-02-10T17:55:51.721Z,81.80
2024-02-10T17:58:53.885Z,81.10
2024-02-10T18:01:57.056Z,81.20
2024-02-10T18:05:01.128Z,81.80
2024-02-10T18:08:05.250Z,82.00
2024-02-10T18:11:07.652Z,82.10
2024-02-10T18:14:10.300Z,83.70
2024-02-10T18:17:13.725Z,84.40
2024-02-10T18:20:16.837Z,85.30
2024-02-10T18:23:19.215Z,86.00
2024-02-10T18:26:24.574Z,87.60
2024-02-10T18:29:27.210Z,88.90
2024-02-10T18:32:30.055Z,90.40
2024-02-10T18:35:32.304Z,90.90
2024-02-10T18:38:35.001Z,91.40
2024-02-10T18:41:37.185Z,92.50
2024-02-10T18:44:41.428Z,93.10
2024-02-10T18:47:44.147Z,93.30
2024-02-10T18:50:47.105Z,94.60
2024-02-10T18:53:49.663Z,96.40
2024-02-10T18:56:53.031Z,98.80
2024-02-10T18:59:55.166Z,99.90
2024-02-10T19:02:57.550Z,99.90
2024-02-10T19:05:59.922Z,99.90
2024-02-10T19:09:02.234Z,99.90
2024-02-10T19:12:04.883Z,99.90
2024-02-10T19:15:11.047Z,99.90
2024-02-10T19:18:15.351Z,99.90
2024-02-10T19:21:17.581Z,99.90
2024-02-10T19:24:19.936Z,99.90
2024-02-10T19:27:22.436Z,99.90
2024-02-10T19:30:25.773Z,99.90
2024-02-10T19:33:28.069Z,99.90
2024-02-10T19:36:31.160Z,99.90
2024-02-10T19:39:34.800Z,99.90
2024-02-10T19:42:37.702Z,99.90
2024-02-10T19:45:39.973Z,99.90
2024-02-10T19:48:43.258Z,99.90
2024-02-10T19:51:45.574Z,99.90
2024-02-10T19:54:48.230Z,99.90
2024-02-10T19:57:50.600Z,99.90
2024-02-10T20:00:53.908Z,99.90
2024-02-10T20:03:57.353Z,99.90
2024-02-10T20:07:01.567Z,99.90
2024-02-10T20:10:04.197Z,99.90
2024-02-10T20:13:09.254Z,99.90
2024-02-10T20:16:12.411Z,99.90
2024-02-10T20:19:16.119Z,99.90
2024-02-10T20:22:19.900Z,99.90
2024-02-10T20:25:23.887Z,99.90
2024-02-10T20:28:27.317Z,99.90
2024-02-10T20:31:29.936Z,99.90
2024-02-10T20:34:32.958Z,99.90
2024-02-10T20:37:35.454Z,99.90
2024-02-10T20:40:38.244Z,99.90
2024-02-10T20:43:42.608Z,99.90
2024-02-10T20:46:47.380Z,99.90
2024-02-10T20:49:49.570Z,99.90
2024-02-10T20:52:52.420Z,99.90
2024-02-10T20:55:54.886Z,99.90
2024-02-10T20:58:57.084Z,99.90
2024-02-10T21:01:59.994Z,99.90
2024-02-10T21:05:06.453Z,99.90
2024-02-10T21:08:09.210Z,99.90
2024-02-10T21:11:11.778Z,99.90
2024-02-10T21:14:15.009Z,99.90
2024-02-10T21:17:17.535Z,99.90
2024-02-10T21:20:19.823Z,99.90
2024-02-10T21:23:25.984Z,99.90
2024-02-10T21:26:28.195Z,99.90
2024-02-10T21:29:30.553Z,99.90
2024-02-10T21:32:34.412Z,99.90
2024-02-10T21:35:41.339Z,99.90
2024-02-10T21:38:43.627Z,99.90
2024-02-10T21:41:48.584Z,99.90
2024-02-10T21:44:54.960Z,99.90
2024-02-10T21:47:57.451Z,99.90
2024-02-10T21:50:59.845Z,99.90
2024-02-10T21:54:02.846Z,99.90
2024-02-10T21:57:06.340Z,99.90
2024-02-10T22:00:16.289Z,99.90
2024-02-10T22:03:19.229Z,99.90
2024-02-10T22:06:23.196Z,99.90
2024-02-10T22:09:25.652Z,99.90
2024-02-10T22:12:27.935Z,99.90
2024-02-10T22:15:30.228Z,99.90
2024-02-10T22:18:32.533Z,99.90
2024-02-10T22:21:34.984Z,99.90
2024-02-10T22:24:37.505Z,99.90
2024-02-10T22:27:41.448Z,99.90
2024-02-10T22:30:43.581Z,99.90
2024-02-10T22:33:47.036Z,99.90
2024-02-10T22:36:49.474Z,99.90
2024-02-10T22:39:55.458Z,99.90
2024-02-10T22:43:00.309Z,99.90
2024-02-10T22:46:03.277Z,99.90
2024-02-10T22:49:05.512Z,99.90
2024-02-10T22:52:10.636Z,99.90
2024-02-10T22:55:12.726Z,99.90
2024-02-10T22:58:17.961Z,99.90
2024-02-10T23:01:25.561Z,99.90
2024-02-10T23:04:28.380Z,99.90
2024-02-10T23:07:35.986Z,99.90
2024-02-10T23:10:38.455Z,99.90
2024-02-10T23:13:48.531Z,99.90
2024-02-10T23:16:51.229Z,99.90
2024-02-10T23:20:00.477Z,99.90
2024-02-10T23:23:05.472Z,99.90
2024-02-10T23:26:11.981Z,99.90
2024-02-10T23:29:15.079Z,99.90
2024-02-10T23:32:17.429Z,99.90
2024-02-10T23:35:23.305Z,99.90
2024-02-10T23:38:28.687Z,99.90
2024-02-10T23:41:30.806Z,99.90
2024-02-10T23:44:33.185Z,99.90
2024-02-10T23:47:35.522Z,99.90
2024-02-10T23:50:38.269Z,99.90
2024-02-10T23:53:42.062Z,99.90
2024-02-10T23:56:45.361Z,99.90
2024-02-10T23:59:47.670Z,99.90
